createdAt,value
2022-11-27T00:01:27.553Z,13.52
2022-11-27T00:03:55.755Z,15.73
2022-11-27T00:06:25.140Z,16.02
2022-11-27T00:08:52.409Z,17.67
2022-11-27T00:11:24.623Z,10.63
2022-11-27T00:13:52.062Z,16.92
2022-11-27T00:16:20.709Z,35.38
2022-11-27T00:18:48.788Z,20.45
2022-11-27T00:21:24.291Z,12.80
2022-11-27T00:23:53.208Z,12.70
2022-11-27T00:26:21.152Z,14.85
2022-11-27T00:28:48.515Z,14.68
2022-11-27T00:31:19.273Z,19.90
2022-11-27T00:33:46.663Z,22.05
2022-11-27T00:36:15.334Z,19.25
2022-11-27T00:38:42.473Z,13.48
2022-11-27T00:41:11.886Z,28.10
2022-11-27T00:43:44.444Z,17.60
2022-11-27T00:46:17.120Z,12.35
2022-11-27T00:48:45.052Z,15.85
2022-11-27T00:51:15.263Z,13.30
2022-11-27T00:53:42.768Z,19.02
2022-11-27T00:56:14.958Z,12.77
2022-11-27T00:58:48.269Z,21.98
2022-11-27T01:01:19.113Z,11.63
2022-11-27T01:03:47.189Z,18.10
2022-11-27T01:06:14.724Z,17.83
2022-11-27T01:08:42.149Z,20.30
2022-11-27T01:11:20.749Z,23.58
2022-11-27T01:13:48.545Z,17.00
2022-11-27T01:16:18.929Z,12.70
2022-11-27T01:18:47.871Z,16.83
2022-11-27T01:21:18.160Z,10.55
2022-11-27T01:23:45.740Z,19.98
2022-11-27T01:26:13.071Z,14.65
2022-11-27T01:28:40.986Z,14.27
2022-11-27T01:31:12.508Z,22.40
2022-11-27T01:33:39.803Z,23.17
2022-11-27T01:36:08.259Z,20.60
2022-11-27T01:38:35.694Z,18.50
2022-11-27T01:41:08.740Z,20.80
2022-11-27T01:44:20.753Z,19.25
2022-11-27T01:46:50.564Z,13.82
2022-11-27T01:49:32.440Z,16.98
2022-11-27T01:52:04.656Z,15.97
2022-11-27T01:54:37.351Z,14.13
2022-11-27T01:57:17.905Z,20.02
2022-11-27T01:59:46.492Z,22.02
2022-11-27T02:02:13.729Z,11.02
2022-11-27T02:04:41.076Z,21.05
2022-11-27T02:07:08.270Z,23.90
2022-11-27T02:09:35.482Z,20.10
2022-11-27T02:12:16.036Z,20.08
2022-11-27T02:14:52.012Z,18.15
2022-11-27T02:17:30.974Z,16.70
2022-11-27T02:20:25.797Z,16.83
2022-11-27T02:23:14.265Z,21.30
2022-11-27T02:25:59.950Z,16.65
2022-11-27T02:28:43.047Z,18.00
2022-11-27T02:31:22.250Z,36.08
2022-11-27T02:33:53.920Z,18.95
2022-11-27T02:36:26.510Z,17.00
2022-11-27T02:41:29.238Z,17.45
2022-11-27T02:43:58.292Z,26.52
2022-11-27T02:46:27.639Z,17.25
2022-11-27T02:48:58.857Z,19.27
2022-11-27T02:51:33.546Z,18.73
2022-11-27T02:54:04.497Z,27.75
2022-11-27T02:56:34.527Z,22.80
2022-11-27T02:59:06.326Z,20.00
2022-11-27T03:01:39.039Z,19.00
2022-11-27T03:06:43.931Z,22.65
2022-11-27T03:09:21.521Z,24.08
2022-11-27T03:11:48.930Z,23.92
2022-11-27T03:14:16.890Z,22.05
2022-11-27T03:16:48.274Z,20.55
2022-11-27T03:19:25.915Z,27.45
2022-11-27T03:21:55.814Z,21.27
2022-11-27T03:24:23.609Z,31.88
2022-11-27T03:26:51.271Z,22.33
2022-11-27T03:29:23.613Z,22.02
2022-11-27T03:31:51.476Z,30.02
2022-11-27T03:34:18.939Z,21.33
2022-11-27T03:36:46.366Z,17.00
2022-11-27T03:39:13.964Z,27.73
2022-11-27T03:41:59.812Z,21.83
2022-11-27T03:44:44.745Z,19.75
2022-11-27T03:47:55.303Z,26.05
2022-11-27T03:50:31.244Z,22.75
2022-11-27T03:53:09.317Z,22.08
2022-11-27T03:56:06.806Z,31.88
2022-11-27T03:58:43.149Z,26.33
2022-11-27T04:01:16.110Z,25.08
2022-11-27T04:03:43.405Z,21.92
2022-11-27T04:06:11.658Z,23.63
2022-11-27T04:08:39.316Z,21.23
2022-11-27T04:11:06.382Z,23.70
2022-11-27T04:13:33.392Z,25.35
2022-11-27T04:16:01.963Z,23.40
2022-11-27T04:18:29.825Z,23.33
2022-11-27T04:20:56.890Z,21.52
2022-11-27T04:23:23.942Z,30.13
2022-11-27T04:25:51.131Z,24.88
2022-11-27T04:28:18.219Z,23.25
2022-11-27T04:30:50.243Z,24.85
2022-11-27T04:33:17.266Z,27.02
2022-11-27T04:35:44.300Z,33.80
2022-11-27T04:38:11.360Z,19.52
2022-11-27T04:40:38.517Z,30.27
2022-11-27T04:43:05.495Z,30.60
2022-11-27T04:45:32.501Z,28.88
2022-11-27T04:47:59.754Z,25.90
2022-11-27T04:50:26.808Z,30.42
2022-11-27T04:52:53.928Z,28.77
2022-11-27T04:55:20.939Z,26.40
2022-11-27T04:57:47.921Z,26.40
2022-11-27T05:00:15.521Z,20.75
2022-11-27T05:02:42.559Z,32.63
2022-11-27T05:05:09.899Z,26.30
2022-11-27T05:07:37.214Z,29.40
2022-11-27T05:10:05.959Z,26.27
2022-11-27T05:12:33.026Z,25.17
2022-11-27T05:15:04.186Z,30.15
2022-11-27T05:17:31.846Z,24.50
2022-11-27T05:19:59.269Z,26.65
2022-11-27T05:22:26.249Z,30.25
2022-11-27T05:24:53.253Z,25.75
2022-11-27T05:27:20.251Z,27.17
2022-11-27T05:29:47.239Z,24.35
2022-11-27T05:32:14.206Z,29.92
2022-11-27T05:34:41.459Z,24.85
2022-11-27T05:37:08.673Z,32.28
2022-11-27T05:39:35.671Z,19.90
2022-11-27T05:42:02.665Z,21.20
2022-11-27T05:44:29.770Z,33.45
2022-11-27T05:46:57.156Z,22.52
2022-11-27T05:49:24.255Z,19.63
2022-11-27T05:51:51.896Z,34.33
2022-11-27T05:54:19.141Z,24.77
2022-11-27T05:56:46.144Z,24.80
2022-11-27T05:59:14.450Z,21.30
2022-11-27T06:01:41.476Z,23.80
2022-11-27T06:04:08.557Z,20.73
2022-11-27T06:06:35.590Z,25.45
2022-11-27T06:09:04.045Z,24.88
2022-11-27T06:11:32.700Z,19.55
2022-11-27T06:13:59.761Z,26.17
2022-11-27T06:16:26.800Z,30.95
2022-11-27T06:18:55.383Z,25.05
2022-11-27T06:21:24.102Z,31.92
2022-11-27T06:23:55.376Z,26.42
2022-11-27T06:26:25.668Z,16.00
2022-11-27T06:28:54.206Z,22.90
2022-11-27T06:31:23.619Z,25.73
2022-11-27T06:33:52.952Z,27.40
2022-11-27T06:36:21.543Z,28.60
2022-11-27T06:38:48.575Z,26.38
2022-11-27T06:41:18.220Z,25.42
2022-11-27T06:43:45.374Z,27.00
2022-11-27T06:46:16.008Z,23.02
2022-11-27T06:48:44.533Z,25.27
2022-11-27T06:51:14.098Z,24.52
2022-11-27T06:53:41.972Z,23.05
2022-11-27T06:56:14.323Z,24.95
2022-11-27T06:58:42.382Z,21.48
2022-11-27T07:01:13.395Z,19.60
2022-11-27T07:03:40.656Z,22.83
2022-11-27T07:06:10.346Z,21.77
2022-11-27T07:08:38.420Z,20.00
2022-11-27T07:11:08.466Z,20.50
2022-11-27T07:13:35.472Z,23.13
2022-11-27T07:16:05.713Z,20.42
2022-11-27T07:18:37.973Z,24.42
2022-11-27T07:21:05.361Z,25.33
2022-11-27T07:23:32.473Z,20.17
2022-11-27T07:26:04.395Z,18.08
2022-11-27T07:28:31.377Z,19.80
2022-11-27T07:30:58.989Z,14.70
2022-11-27T07:33:26.465Z,20.02
2022-11-27T07:36:03.354Z,16.38
2022-11-27T07:38:30.452Z,24.35
2022-11-27T07:41:01.711Z,20.38
2022-11-27T07:43:29.767Z,19.38
2022-11-27T07:45:57.217Z,16.50
2022-11-27T07:48:24.704Z,14.32
2022-11-27T07:50:51.698Z,14.70
2022-11-27T07:53:18.711Z,23.55
2022-11-27T07:55:45.733Z,21.45
2022-11-27T07:58:12.855Z,17.17
2022-11-27T08:00:40.003Z,13.30
2022-11-27T08:03:07.165Z,24.40
2022-11-27T08:05:35.544Z,22.98
2022-11-27T08:08:04.229Z,12.90
2022-11-27T08:10:34.888Z,14.10
2022-11-27T08:13:02.080Z,25.92
2022-11-27T08:15:29.191Z,17.40
2022-11-27T08:17:56.267Z,14.95
2022-11-27T08:20:23.366Z,17.40
2022-11-27T08:22:50.475Z,12.25
2022-11-27T08:25:17.741Z,16.67
2022-11-27T08:27:44.765Z,13.45
2022-11-27T08:30:11.943Z,19.67
2022-11-27T08:32:39.708Z,23.80
2022-11-27T08:35:07.400Z,15.20
2022-11-27T08:37:35.476Z,13.02
2022-11-27T08:40:03.708Z,12.70
2022-11-27T08:42:30.891Z,15.68
2022-11-27T08:44:57.940Z,12.70
2022-11-27T08:47:24.959Z,11.68
2022-11-27T08:49:52.308Z,16.73
2022-11-27T08:52:20.478Z,18.58
2022-11-27T08:54:47.470Z,14.73
2022-11-27T08:57:16.264Z,13.70
2022-11-27T08:59:43.287Z,12.85
2022-11-27T09:02:13.244Z,14.60
2022-11-27T09:04:40.497Z,14.85
2022-11-27T09:07:07.679Z,12.02
2022-11-27T09:09:36.579Z,15.23
2022-11-27T09:12:03.804Z,18.88
2022-11-27T09:14:30.832Z,16.58
2022-11-27T09:16:58.043Z,14.48
2022-11-27T09:19:25.955Z,15.02
2022-11-27T09:21:53.043Z,12.82
2022-11-27T09:24:20.175Z,12.07
2022-11-27T09:26:47.168Z,12.63
2022-11-27T09:29:14.332Z,9.45
2022-11-27T09:31:41.410Z,10.68
2022-11-27T09:34:08.473Z,11.10
2022-11-27T09:36:35.800Z,10.82
2022-11-27T09:39:03.727Z,12.25
2022-11-27T09:41:44.259Z,13.50
2022-11-27T09:45:08.757Z,13.32
2022-11-27T09:47:52.847Z,10.13
2022-11-27T09:50:25.939Z,12.20
2022-11-27T09:53:05.812Z,13.30
2022-11-27T09:55:38.283Z,12.73
2022-11-27T09:58:29.594Z,11.23
2022-11-27T10:00:56.649Z,13.55
2022-11-27T10:03:27.123Z,11.43
2022-11-27T10:06:14.599Z,17.10
2022-11-27T10:09:07.576Z,9.90
2022-11-27T10:14:44.435Z,11.40
2022-11-27T10:17:17.217Z,10.68
2022-11-27T10:20:13.745Z,11.68
2022-11-27T10:23:22.548Z,9.45
2022-11-27T10:25:58.739Z,14.30
2022-11-27T10:28:54.305Z,13.93
2022-11-27T10:31:30.342Z,23.38
2022-11-27T10:34:04.935Z,11.13
2022-11-27T10:36:41.344Z,9.70
2022-11-27T10:39:16.230Z,11.63
2022-11-27T10:42:03.459Z,11.45
2022-11-27T10:44:34.128Z,8.75
2022-11-27T10:47:07.945Z,16.67
2022-11-27T10:49:42.023Z,9.73
2022-11-27T10:52:13.425Z,13.07
2022-11-27T10:54:41.414Z,8.60
2022-11-27T10:57:34.397Z,10.75
2022-11-27T11:00:09.973Z,14.38
2022-11-27T11:02:38.813Z,10.90
2022-11-27T11:05:35.020Z,13.02
2022-11-27T11:08:14.544Z,13.70
2022-11-27T11:10:52.711Z,11.65
2022-11-27T11:13:27.712Z,15.13
2022-11-27T11:16:01.297Z,12.18
2022-11-27T11:18:31.718Z,16.95
2022-11-27T11:21:01.435Z,11.25
2022-11-27T11:23:38.298Z,15.85
2022-11-27T11:26:23.788Z,16.48
2022-11-27T11:28:54.132Z,10.13
2022-11-27T11:31:31.401Z,12.20
2022-11-27T11:34:02.745Z,13.07
2022-11-27T11:36:30.076Z,12.85
2022-11-27T11:38:57.857Z,10.73
2022-11-27T11:41:25.030Z,10.98
2022-11-27T11:44:01.651Z,14.88
2022-11-27T11:46:32.744Z,16.85
2022-11-27T11:49:26.344Z,11.90
2022-11-27T11:52:25.537Z,14.48
2022-11-27T11:55:22.490Z,7.25
2022-11-27T11:58:25.527Z,12.75
2022-11-27T12:01:26.770Z,11.32
2022-11-27T12:04:14.649Z,15.02
2022-11-27T12:06:53.515Z,8.95
2022-11-27T12:09:33.870Z,7.82
2022-11-27T12:12:43.497Z,13.32
2022-11-27T12:15:25.067Z,13.27
2022-11-27T12:18:01.444Z,12.48
2022-11-27T12:20:57.642Z,13.63
2022-11-27T12:23:49.685Z,14.95
2022-11-27T12:26:31.750Z,9.27
2022-11-27T12:29:16.616Z,11.50
2022-11-27T12:32:02.968Z,9.15
2022-11-27T12:34:45.593Z,16.13
2022-11-27T12:37:14.104Z,11.80
2022-11-27T12:40:02.785Z,9.38
2022-11-27T12:42:42.329Z,14.20
2022-11-27T12:45:12.070Z,17.05
2022-11-27T12:47:43.269Z,11.30
2022-11-27T12:50:27.272Z,26.15
2022-11-27T12:53:11.466Z,13.40
2022-11-27T12:55:43.133Z,14.48
2022-11-27T12:58:20.670Z,16.20
2022-11-27T13:00:49.673Z,11.68
2022-11-27T13:03:30.938Z,14.13
2022-11-27T13:06:08.417Z,7.47
2022-11-27T13:08:56.687Z,8.30
2022-11-27T13:11:32.608Z,13.82
2022-11-27T13:14:05.160Z,11.95
2022-11-27T13:19:13.356Z,8.95
2022-11-27T13:21:42.911Z,11.73
2022-11-27T13:24:12.938Z,7.07
2022-11-27T13:27:09.593Z,6.30
2022-11-27T13:29:45.849Z,12.55
2022-11-27T13:32:24.947Z,10.20
2022-11-27T13:34:55.133Z,8.48
2022-11-27T13:37:36.627Z,11.00
2022-11-27T13:40:23.664Z,9.18
2022-11-27T13:42:56.552Z,12.00
2022-11-27T13:45:30.300Z,10.82
2022-11-27T13:48:00.102Z,9.80
2022-11-27T13:50:31.294Z,14.15
2022-11-27T13:53:05.700Z,9.23
2022-11-27T13:55:35.726Z,10.98
2022-11-27T13:58:04.508Z,10.10
2022-11-27T14:00:39.650Z,7.63
2022-11-27T14:03:10.557Z,13.65
2022-11-27T14:05:42.343Z,7.60
2022-11-27T14:08:33.459Z,7.72
2022-11-27T14:11:12.980Z,16.65
2022-11-27T14:13:45.222Z,9.20
2022-11-27T14:16:21.472Z,10.05
2022-11-27T14:18:53.496Z,11.18
2022-11-27T14:21:30.966Z,11.55
2022-11-27T14:23:58.089Z,10.60
2022-11-27T14:26:25.483Z,10.55
2022-11-27T14:28:55.192Z,12.88
2022-11-27T14:31:35.698Z,11.65
2022-11-27T14:34:23.398Z,10.95
2022-11-27T14:36:52.650Z,14.52
2022-11-27T14:39:25.453Z,10.90
2022-11-27T14:41:57.178Z,16.75
2022-11-27T14:44:24.355Z,9.00
2022-11-27T14:46:52.342Z,6.72
2022-11-27T14:49:21.140Z,7.95
2022-11-27T14:51:51.090Z,8.93
2022-11-27T14:54:26.924Z,7.38
2022-11-27T14:56:54.500Z,14.82
2022-11-27T14:59:23.549Z,9.60
2022-11-27T15:02:28.925Z,17.58
2022-11-27T15:05:04.262Z,9.23
2022-11-27T15:07:38.028Z,12.60
2022-11-27T15:10:32.074Z,13.38
2022-11-27T15:13:01.402Z,11.63
2022-11-27T15:15:33.739Z,8.32
2022-11-27T15:18:04.526Z,10.95
2022-11-27T15:20:39.485Z,15.25
2022-11-27T15:23:19.479Z,8.68
2022-11-27T15:25:50.540Z,8.80
2022-11-27T15:28:23.264Z,8.45
2022-11-27T15:30:51.056Z,14.18
2022-11-27T15:33:32.452Z,9.73
2022-11-27T15:36:16.800Z,7.97
2022-11-27T15:38:45.627Z,10.27
2022-11-27T15:41:23.508Z,6.85
2022-11-27T15:43:50.687Z,7.97
2022-11-27T15:46:34.392Z,8.57
2022-11-27T15:49:01.358Z,7.47
2022-11-27T15:51:29.066Z,11.18
2022-11-27T15:53:56.087Z,8.00
2022-11-27T15:56:23.187Z,7.25
2022-11-27T15:58:50.221Z,8.73
2022-11-27T16:01:17.249Z,21.92
2022-11-27T16:03:44.309Z,6.95
2022-11-27T16:06:11.372Z,9.55
2022-11-27T16:08:38.415Z,8.30
2022-11-27T16:11:08.996Z,11.13
2022-11-27T16:13:36.008Z,13.15
2022-11-27T16:16:04.588Z,12.40
2022-11-27T16:18:32.858Z,8.00
2022-11-27T16:21:04.393Z,7.03
2022-11-27T16:23:32.247Z,8.25
2022-11-27T16:25:59.815Z,9.10
2022-11-27T16:28:27.908Z,9.18
2022-11-27T16:30:56.814Z,12.77
2022-11-27T16:33:31.121Z,8.73
2022-11-27T16:36:06.901Z,8.55
2022-11-27T16:38:34.629Z,8.63
2022-11-27T16:41:04.768Z,9.63
2022-11-27T16:43:46.311Z,7.07
2022-11-27T16:48:44.545Z,12.27
2022-11-27T16:51:14.165Z,14.68
2022-11-27T16:53:44.236Z,8.63
2022-11-27T16:56:13.619Z,24.95
2022-11-27T16:58:43.591Z,12.20
2022-11-27T17:01:13.240Z,11.18
2022-11-27T17:03:40.608Z,13.13
2022-11-27T17:06:10.060Z,15.32
2022-11-27T17:08:37.989Z,12.05
2022-11-27T17:11:13.631Z,8.77
2022-11-27T17:13:41.000Z,8.60
2022-11-27T17:16:08.833Z,39.38
2022-11-27T17:18:38.316Z,10.95
2022-11-27T17:21:11.922Z,12.60
2022-11-27T17:23:42.903Z,8.50
2022-11-27T17:26:11.928Z,28.95
2022-11-27T17:28:40.203Z,12.77
2022-11-27T17:31:12.181Z,10.07
2022-11-27T17:33:39.323Z,16.27
2022-11-27T17:36:06.982Z,10.40
2022-11-27T17:38:34.458Z,11.00
2022-11-27T17:41:03.482Z,8.25
2022-11-27T17:43:30.477Z,18.23
2022-11-27T17:45:58.372Z,9.52
2022-11-27T17:48:26.340Z,10.50
2022-11-27T17:50:54.343Z,9.60
2022-11-27T17:53:21.618Z,13.13
2022-11-27T17:55:49.533Z,13.55
2022-11-27T17:58:16.617Z,9.15
2022-11-27T18:00:45.602Z,7.72
2022-11-27T18:03:12.826Z,9.88
2022-11-27T18:05:40.180Z,9.32
2022-11-27T18:08:07.194Z,11.70
2022-11-27T18:10:34.544Z,9.70
2022-11-27T18:13:02.831Z,8.60
2022-11-27T18:15:31.037Z,11.93
2022-11-27T18:17:59.040Z,10.93
2022-11-27T18:20:26.420Z,9.82
2022-11-27T18:22:53.436Z,9.38
2022-11-27T18:25:20.499Z,8.30
2022-11-27T18:27:47.527Z,7.68
2022-11-27T18:30:14.809Z,11.88
2022-11-27T18:32:41.856Z,7.55
2022-11-27T18:35:10.686Z,13.60
2022-11-27T18:37:38.417Z,13.15
2022-11-27T18:40:07.049Z,7.30
2022-11-27T18:42:34.193Z,9.77
2022-11-27T18:45:01.546Z,8.02
2022-11-27T18:47:28.816Z,8.38
2022-11-27T18:49:58.622Z,16.23
2022-11-27T18:52:25.636Z,10.95
2022-11-27T18:54:53.173Z,9.60
2022-11-27T18:57:20.342Z,14.90
2022-11-27T18:59:48.716Z,21.58
2022-11-27T19:02:16.031Z,7.28
2022-11-27T19:04:44.704Z,9.55
2022-11-27T19:07:12.546Z,11.13
2022-11-27T19:09:40.062Z,9.07
2022-11-27T19:12:07.641Z,9.27
2022-11-27T19:14:34.699Z,5.90
2022-11-27T19:17:01.704Z,5.72
2022-11-27T19:22:19.883Z,8.20
2022-11-27T19:24:47.089Z,9.55
2022-11-27T19:27:14.434Z,8.45
2022-11-27T19:29:41.745Z,10.02
2022-11-27T19:32:09.842Z,8.93
2022-11-27T19:34:36.854Z,7.30
2022-11-27T19:37:03.957Z,7.97
2022-11-27T19:39:31.529Z,8.25
2022-11-27T19:41:58.663Z,9.02
2022-11-27T19:44:26.195Z,10.45
2022-11-27T19:46:53.247Z,8.15
2022-11-27T19:49:21.244Z,8.63
2022-11-27T19:51:48.572Z,10.38
2022-11-27T19:54:19.030Z,8.63
2022-11-27T19:56:46.326Z,10.43
2022-11-27T19:59:13.523Z,12.45
2022-11-27T20:01:42.656Z,10.73
2022-11-27T20:04:11.041Z,9.70
2022-11-27T20:06:39.347Z,10.55
2022-11-27T20:09:07.148Z,11.10
2022-11-27T20:11:35.553Z,11.30
2022-11-27T20:14:06.285Z,8.93
2022-11-27T20:16:37.589Z,9.73
2022-11-27T20:19:05.921Z,11.55
2022-11-27T20:21:36.463Z,22.65
2022-11-27T20:24:03.749Z,10.93
2022-11-27T20:26:31.076Z,17.88
2022-11-27T20:28:59.963Z,11.40
2022-11-27T20:31:35.000Z,11.82
2022-11-27T20:34:04.123Z,14.15
2022-11-27T20:36:34.013Z,12.65
2022-11-27T20:39:01.834Z,10.35
2022-11-27T20:41:29.351Z,10.63
2022-11-27T20:43:58.732Z,10.07
2022-11-27T20:46:26.673Z,13.30
2022-11-27T20:48:54.551Z,13.50
2022-11-27T20:51:28.337Z,11.05
2022-11-27T20:53:57.735Z,13.60
2022-11-27T20:56:25.434Z,12.05
2022-11-27T20:58:52.468Z,12.05
2022-11-27T21:01:31.826Z,11.60
2022-11-27T21:04:02.970Z,10.48
2022-11-27T21:06:32.062Z,12.25
2022-11-27T21:09:01.457Z,10.07
2022-11-27T21:11:32.429Z,8.30
2022-11-27T21:14:10.661Z,11.55
2022-11-27T21:16:44.812Z,12.23
2022-11-27T21:19:25.232Z,13.15
2022-11-27T21:21:53.922Z,12.82
2022-11-27T21:24:23.661Z,11.50
2022-11-27T21:26:51.120Z,14.02
2022-11-27T21:29:18.544Z,12.70
2022-11-27T21:31:47.745Z,10.40
2022-11-27T21:34:15.976Z,12.70
2022-11-27T21:36:44.225Z,10.10
2022-11-27T21:39:13.307Z,11.68
2022-11-27T21:41:41.285Z,14.10
2022-11-27T21:44:08.356Z,10.70
2022-11-27T21:46:36.231Z,10.07
2022-11-27T21:49:05.632Z,16.52
2022-11-27T21:51:32.679Z,13.63
2022-11-27T21:54:06.828Z,9.10
2022-11-27T21:56:37.630Z,11.10
2022-11-27T21:59:05.452Z,14.50
2022-11-27T22:01:32.711Z,9.50
2022-11-27T22:04:00.022Z,10.20
2022-11-27T22:06:30.493Z,13.07
2022-11-27T22:08:58.896Z,10.50
2022-11-27T22:11:30.254Z,10.82
2022-11-27T22:14:00.041Z,12.68
2022-11-27T22:16:29.393Z,12.70
2022-11-27T22:18:58.711Z,10.63
2022-11-27T22:21:27.390Z,11.20
2022-11-27T22:23:55.181Z,13.50
2022-11-27T22:26:23.932Z,10.15
2022-11-27T22:28:52.348Z,10.98
2022-11-27T22:31:23.130Z,11.27
2022-11-27T22:33:50.761Z,10.65
2022-11-27T22:36:24.523Z,10.48
2022-11-27T22:38:54.388Z,10.98
2022-11-27T22:41:26.836Z,12.88
2022-11-27T22:43:54.204Z,11.18
2022-11-27T22:46:33.808Z,12.70
2022-11-27T22:49:06.388Z,12.40
2022-11-27T22:51:35.413Z,10.38
2022-11-27T22:54:03.875Z,11.05
2022-11-27T22:56:33.551Z,14.73
2022-11-27T22:59:30.676Z,12.68
2022-11-27T23:01:50.584Z,14.38
2022-11-27T23:04:17.615Z,12.23
2022-11-27T23:06:48.464Z,9.80
2022-11-27T23:09:18.717Z,15.30
2022-11-27T23:11:47.056Z,11.07
2022-11-27T23:14:14.158Z,10.65
2022-11-27T23:16:43.586Z,13.98
2022-11-27T23:19:12.066Z,14.85
2022-11-27T23:21:40.360Z,14.57
2022-11-27T23:24:10.814Z,14.85
2022-11-27T23:26:38.142Z,11.05
2022-11-27T23:29:10.313Z,10.88
2022-11-27T23:31:38.467Z,15.32
2022-11-27T23:34:11.007Z,18.75
2022-11-27T23:36:38.672Z,9.63
2022-11-27T23:39:07.831Z,20.42
2022-11-27T23:41:35.197Z,14.20
2022-11-27T23:44:02.992Z,13.00
2022-11-27T23:46:30.604Z,10.48
2022-11-27T23:48:59.927Z,15.55
2022-11-27T23:51:30.580Z,11.57
2022-11-27T23:53:58.582Z,14.50
2022-11-27T23:56:28.277Z,13.57
2022-11-27T23:58:56.440Z,15.20
